Bruk link Alternativ webside om du vil se statistikk,rapport,graf,analyse og mye mer.

Vårt webkamera more information My webcam


webkamera på Randaberg more information webcam on Randaberg


Nedbørsradar  rain snow radar


Besøk vår andre værside:

Alternativ webside

Alternativ mobil

Regnskvett RandabergWebsite of another weatherstation



Ikke nødvendig med spesiell oppmerksomhet.    Det er ingen advarsler

Nære METAR rapporter

   
ENHD - Haugesund
oppdatert: 21-09-2021 16:20
Nearby Showers, For det meste skyet  
Nearby Showers, For det meste skyet  
   Vind: VSV 3.6 m/s
Vind: VSV 3.6 m/s
Temperatur: 14°C
Duggpunkt: 10°C
Fuktighet: 77%
Barometer: 1023 hPa
Skyer: For det meste skyet
Sikt: More than 10 km
Skydetaljer: få skyer 640.1 m,
Delvis Skyet 1219.2 m,
For det meste skyet 2194.6 m
ENHD 211420Z 25007KT 9999 VCSH FEW021 SCT040 BKN072 14/10 Q1023
ENZV - Randaberg
oppdatert: 21-09-2021 16:20
For det meste skyet  
For det meste skyet  
   Vind: VNV 4.1 m/s
Vind: VNV 4.1 m/s
Temperatur: 15°C
Duggpunkt: 9°C
Fuktighet: 68%
Barometer: 1023 hPa
Skyer: For det meste skyet
Sikt: More than 10 km
Skydetaljer: få skyer 823 m,
Delvis Skyet 1066.8 m,
For det meste skyet 2255.5 m
ENZV 211420Z 29008KT 9999 FEW027 SCT035 BKN074 15/09 Q1023 NOSIG
ENBR - Bergen
oppdatert: 21-09-2021 16:20
Nearby Showers, For det meste skyet  
Nearby Showers, For det meste skyet  
   Vind: VSV 2.6 m/s
Vind: VSV 2.6 m/s
Temperatur: 13°C
Duggpunkt: 9°C
Fuktighet: 77%
Barometer: 1022 hPa
Skyer: For det meste skyet
Sikt: More than 10 km
Skydetaljer: få skyer 426.7 m,
For det meste skyet 1371.6 m
ENBR 211420Z 24005KT 170V280 9999 VCSH FEW014 BKN045 13/09 Q1022 BECMG 16015KT BKN012 RMK WIND 1200FT 25009KT
ENCN - Kristiansand
oppdatert: 21-09-2021 16:20
Klart  
Klart  
   Vind: SV 3.1 m/s
Vind: SV 3.1 m/s
Temperatur: 14°C
Duggpunkt: 9°C
Fuktighet: 72%
Barometer: 1022 hPa
Sikt: More than 10 km
Skydetaljer: Klart
ENCN 211420Z 23006KT CAVOK 14/09 Q1022
ENGM - Oslo
oppdatert: 21-09-2021 16:20
For det meste skyet  
For det meste skyet  
   Vind: VSV 1.5 m/s
Vind: VSV 1.5 m/s
Temperatur: 15°C
Duggpunkt: 5°C
Fuktighet: 51%
Barometer: 1018 hPa
Skyer: For det meste skyet
Sikt: More than 10 km
Skydetaljer: få skyer 823 m,
For det meste skyet 5181.6 m
ENGM 211420Z 25003KT 190V340 9999 FEW027 BKN170 15/05 Q1018 NOSIG
ENVA - Trondheim
oppdatert: 21-09-2021 16:20
For det meste skyet  
For det meste skyet  
   Vind: VEST 3.6 m/s
Vind: VEST 3.6 m/s
Temperatur: 13°C
Duggpunkt: 7°C
Fuktighet: 67%
Barometer: 1017 hPa
Skyer: For det meste skyet
Sikt: More than 10 km
Skydetaljer: få skyer 1280.2 m,
For det meste skyet 1737.4 m
ENVA 211420Z 28007KT 9999 FEW042 BKN057 13/07 Q1017 TEMPO SHRA RMK WIND 670FT 27006KT

Script utviklet av  Saratoga-weather.org Tilrettelagt for malen av  Weerstation Leuven

Du finner vår vær info også på:

European Weather Network

WeatherCloud

Weather Underground

Citizen Weather Observer Program (CWOP)

Utstyr vi bruker:

Værstsjon
Oregon scientific WMR 300

Værprogram
Meteobridge

Oregon scientific WMR 300

Meteobridge